This is the latest recevied weather packets stored in our database for station/object HK6RM-17. If no packets are shown the sender has not sent any weather packets the latest 10 day(s).
| Time | Temp. | Humidity | Pressure | Rain* | Wind** | Luminosity | Snow |
|---|---|---|---|---|---|---|---|
| 1787638402 | 13.89° C | 77% | 1015 hPa | 0 mm | - | - | - |
| 1787637801 | 13.89° C | 77% | 1015 hPa | 0 mm | - | - | - |
| 1787637201 | 13.89° C | 78% | 1015 hPa | 0 mm | - | - | - |
| 1787636600 | 13.89° C | 77% | 1015 hPa | 0 mm | - | - | - |
| 1787636000 | 13.89° C | 77% | 1015 hPa | 0 mm | - | - | - |
| 1787635399 | 13.89° C | 78% | 1016 hPa | 0 mm | - | - | - |
| 1787634799 | 14.44° C | 78% | 1016 hPa | 0 mm | - | - | - |
| 1787634199 | 15° C | 79% | 1016 hPa | 0 mm | - | - | - |
| 1787633598 | 15° C | 78% | 1016 hPa | 0 mm | - | - | - |
| 1787632998 | 15° C | 78% | 1016 hPa | 0 mm | - | - | - |
| 1787632397 | 15.56° C | 77% | 1016 hPa | 0 mm | - | - | - |
| 1787631797 | 15.56° C | 75% | 1017 hPa | 0 mm | - | - | - |
| 1787631196 | 15.56° C | 75% | 1017 hPa | 0 mm | - | - | - |
| 1787630596 | 15.56° C | 72% | 1017 hPa | 0 mm | - | - | - |
| 1787629996 | 12.78° C | 57% | 1017 hPa | 0 mm | - | - | - |
| 1787629395 | 12.22° C | 61% | 1017 hPa | 0 mm | - | - | - |
| 1787628795 | 12.22° C | 60% | 1017 hPa | 0 mm | - | - | - |
| 1787628194 | 12.22° C | 60% | 1017 hPa | 0 mm | - | - | - |
| 1787627594 | 12.22° C | 59% | 1017 hPa | 0 mm | - | - | - |
| 1787626993 | 12.22° C | 59% | 1017 hPa | 0 mm | - | - | - |
| 1787626393 | 12.78° C | 59% | 1017 hPa | 0 mm | - | - | - |
| 1787625792 | 12.22° C | 57% | 1017 hPa | 0 mm | - | - | - |
| 1787625192 | 12.22° C | 57% | 1017 hPa | 0 mm | - | - | - |
| 1787624592 | 12.22° C | 59% | 1016 hPa | 0 mm | - | - | - |
| 1787623991 | 12.22° C | 58% | 1016 hPa | 0 mm | - | - | - |
* Rain latest hour (hover to see other rain measurements)
** Current wind speed in m/s (hover to see current wind gust speed)